sensor_id;sensor_type;location;lat;lon;timestamp;P1;durP1;ratioP1;P2;durP2;ratioP2
9124;SDS011;4597;48.730;9.114;2023-01-30T00:01:40;13.70;;;9.87;;
9124;SDS011;4597;48.730;9.114;2023-01-30T00:04:06;18.70;;;12.47;;
9124;SDS011;4597;48.730;9.114;2023-01-30T00:06:31;21.73;;;12.40;;
9124;SDS011;4597;48.730;9.114;2023-01-30T00:08:57;16.27;;;10.90;;
9124;SDS011;4597;48.730;9.114;2023-01-30T00:11:23;13.70;;;9.80;;
9124;SDS011;4597;48.730;9.114;2023-01-30T00:13:49;15.17;;;10.33;;
9124;SDS011;4597;48.730;9.114;2023-01-30T00:16:15;12.50;;;8.90;;
9124;SDS011;4597;48.730;9.114;2023-01-30T00:18:42;12.00;;;8.93;;
9124;SDS011;4597;48.730;9.114;2023-01-30T00:21:09;13.33;;;9.07;;
9124;SDS011;4597;48.730;9.114;2023-01-30T00:23:36;11.83;;;8.83;;
9124;SDS011;4597;48.730;9.114;2023-01-30T00:26:02;11.83;;;8.30;;
9124;SDS011;4597;48.730;9.114;2023-01-30T00:28:29;13.70;;;9.90;;
9124;SDS011;4597;48.730;9.114;2023-01-30T00:30:55;14.13;;;9.57;;
9124;SDS011;4597;48.730;9.114;2023-01-30T00:33:21;12.97;;;9.47;;
9124;SDS011;4597;48.730;9.114;2023-01-30T00:35:49;12.67;;;9.43;;
9124;SDS011;4597;48.730;9.114;2023-01-30T00:38:16;11.10;;;8.83;;
9124;SDS011;4597;48.730;9.114;2023-01-30T00:40:42;12.20;;;9.17;;
9124;SDS011;4597;48.730;9.114;2023-01-30T00:43:11;11.90;;;8.90;;
9124;SDS011;4597;48.730;9.114;2023-01-30T00:45:57;11.17;;;8.57;;
9124;SDS011;4597;48.730;9.114;2023-01-30T00:48:43;12.00;;;9.20;;
9124;SDS011;4597;48.730;9.114;2023-01-30T00:51:08;12.90;;;9.83;;
9124;SDS011;4597;48.730;9.114;2023-01-30T00:53:34;17.97;;;11.53;;
9124;SDS011;4597;48.730;9.114;2023-01-30T00:55:59;16.57;;;10.67;;
9124;SDS011;4597;48.730;9.114;2023-01-30T00:58:25;14.03;;;9.90;;
9124;SDS011;4597;48.730;9.114;2023-01-30T01:00:51;15.73;;;10.57;;
9124;SDS011;4597;48.730;9.114;2023-01-30T01:03:17;13.73;;;9.47;;
9124;SDS011;4597;48.730;9.114;2023-01-30T01:05:43;13.00;;;9.47;;
9124;SDS011;4597;48.730;9.114;2023-01-30T01:08:09;11.40;;;9.13;;
9124;SDS011;4597;48.730;9.114;2023-01-30T01:10:36;12.77;;;9.93;;
9124;SDS011;4597;48.730;9.114;2023-01-30T01:13:02;11.67;;;8.87;;
9124;SDS011;4597;48.730;9.114;2023-01-30T01:15:28;14.47;;;10.13;;
9124;SDS011;4597;48.730;9.114;2023-01-30T01:17:54;15.37;;;10.63;;
9124;SDS011;4597;48.730;9.114;2023-01-30T01:20:20;15.30;;;10.70;;
9124;SDS011;4597;48.730;9.114;2023-01-30T01:22:46;16.63;;;10.50;;
9124;SDS011;4597;48.730;9.114;2023-01-30T01:25:16;14.37;;;10.23;;
9124;SDS011;4597;48.730;9.114;2023-01-30T01:27:43;12.37;;;9.53;;
9124;SDS011;4597;48.730;9.114;2023-01-30T01:30:09;15.97;;;10.57;;
9124;SDS011;4597;48.730;9.114;2023-01-30T01:32:35;15.57;;;10.50;;
9124;SDS011;4597;48.730;9.114;2023-01-30T01:35:01;14.00;;;10.20;;
9124;SDS011;4597;48.730;9.114;2023-01-30T01:37:26;16.57;;;11.03;;
9124;SDS011;4597;48.730;9.114;2023-01-30T01:39:52;15.70;;;10.87;;
9124;SDS011;4597;48.730;9.114;2023-01-30T01:42:38;13.90;;;10.37;;
9124;SDS011;4597;48.730;9.114;2023-01-30T01:50:14;16.07;;;11.17;;
9124;SDS011;4597;48.730;9.114;2023-01-30T01:52:43;16.27;;;12.27;;
9124;SDS011;4597;48.730;9.114;2023-01-30T01:55:10;17.67;;;11.70;;
9124;SDS011;4597;48.730;9.114;2023-01-30T01:57:38;18.53;;;12.70;;
9124;SDS011;4597;48.730;9.114;2023-01-30T02:00:15;18.97;;;12.47;;
9124;SDS011;4597;48.730;9.114;2023-01-30T02:02:45;16.23;;;11.67;;
9124;SDS011;4597;48.730;9.114;2023-01-30T02:05:15;19.70;;;13.73;;
9124;SDS011;4597;48.730;9.114;2023-01-30T02:07:46;20.13;;;13.40;;
9124;SDS011;4597;48.730;9.114;2023-01-30T02:10:22;19.13;;;12.30;;
9124;SDS011;4597;48.730;9.114;2023-01-30T02:12:50;17.13;;;12.33;;
9124;SDS011;4597;48.730;9.114;2023-01-30T02:15:16;19.20;;;12.93;;
9124;SDS011;4597;48.730;9.114;2023-01-30T02:17:43;20.77;;;12.63;;
9124;SDS011;4597;48.730;9.114;2023-01-30T02:20:19;18.73;;;13.33;;
9124;SDS011;4597;48.730;9.114;2023-01-30T02:25:38;17.37;;;12.27;;
9124;SDS011;4597;48.730;9.114;2023-01-30T02:28:47;20.23;;;12.53;;
9124;SDS011;4597;48.730;9.114;2023-01-30T02:31:26;17.93;;;11.90;;
9124;SDS011;4597;48.730;9.114;2023-01-30T02:34:24;16.97;;;12.20;;
9124;SDS011;4597;48.730;9.114;2023-01-30T02:45:21;18.00;;;11.57;;
9124;SDS011;4597;48.730;9.114;2023-01-30T02:48:06;15.50;;;11.20;;
9124;SDS011;4597;48.730;9.114;2023-01-30T02:50:42;14.43;;;10.90;;
9124;SDS011;4597;48.730;9.114;2023-01-30T02:53:11;16.77;;;10.97;;
9124;SDS011;4597;48.730;9.114;2023-01-30T02:55:39;13.80;;;10.67;;
9124;SDS011;4597;48.730;9.114;2023-01-30T02:58:05;15.77;;;11.40;;
9124;SDS011;4597;48.730;9.114;2023-01-30T03:08:33;12.53;;;10.10;;
9124;SDS011;4597;48.730;9.114;2023-01-30T03:11:05;15.97;;;10.17;;
9124;SDS011;4597;48.730;9.114;2023-01-30T03:13:48;12.83;;;10.33;;
9124;SDS011;4597;48.730;9.114;2023-01-30T03:16:21;13.73;;;10.07;;
9124;SDS011;4597;48.730;9.114;2023-01-30T03:18:52;13.00;;;9.33;;
9124;SDS011;4597;48.730;9.114;2023-01-30T03:21:17;14.43;;;10.40;;
9124;SDS011;4597;48.730;9.114;2023-01-30T03:23:44;12.97;;;9.70;;
9124;SDS011;4597;48.730;9.114;2023-01-30T03:26:12;12.97;;;9.70;;
9124;SDS011;4597;48.730;9.114;2023-01-30T03:28:42;12.60;;;8.90;;
9124;SDS011;4597;48.730;9.114;2023-01-30T03:31:10;11.03;;;8.80;;
9124;SDS011;4597;48.730;9.114;2023-01-30T03:33:36;11.43;;;9.17;;
9124;SDS011;4597;48.730;9.114;2023-01-30T03:36:01;11.37;;;9.10;;
9124;SDS011;4597;48.730;9.114;2023-01-30T03:38:27;11.30;;;8.83;;
9124;SDS011;4597;48.730;9.114;2023-01-30T03:40:52;10.30;;;8.43;;
9124;SDS011;4597;48.730;9.114;2023-01-30T03:43:18;12.90;;;8.87;;
9124;SDS011;4597;48.730;9.114;2023-01-30T03:45:43;10.10;;;8.27;;
9124;SDS011;4597;48.730;9.114;2023-01-30T03:48:09;12.23;;;8.20;;
9124;SDS011;4597;48.730;9.114;2023-01-30T03:50:34;10.57;;;7.87;;
9124;SDS011;4597;48.730;9.114;2023-01-30T03:53:00;11.07;;;8.67;;
9124;SDS011;4597;48.730;9.114;2023-01-30T03:55:25;9.73;;;8.10;;
9124;SDS011;4597;48.730;9.114;2023-01-30T03:57:57;11.87;;;8.67;;
9124;SDS011;4597;48.730;9.114;2023-01-30T04:00:23;10.53;;;8.07;;
9124;SDS011;4597;48.730;9.114;2023-01-30T04:02:48;11.43;;;8.00;;
9124;SDS011;4597;48.730;9.114;2023-01-30T04:05:14;10.37;;;8.60;;
9124;SDS011;4597;48.730;9.114;2023-01-30T04:07:39;10.43;;;8.57;;
9124;SDS011;4597;48.730;9.114;2023-01-30T04:10:05;10.13;;;8.03;;
9124;SDS011;4597;48.730;9.114;2023-01-30T04:12:31;11.27;;;8.43;;
9124;SDS011;4597;48.730;9.114;2023-01-30T04:14:56;11.43;;;8.70;;
9124;SDS011;4597;48.730;9.114;2023-01-30T04:17:22;10.57;;;8.70;;
9124;SDS011;4597;48.730;9.114;2023-01-30T04:19:47;10.57;;;8.30;;
9124;SDS011;4597;48.730;9.114;2023-01-30T04:22:13;9.97;;;7.90;;
9124;SDS011;4597;48.730;9.114;2023-01-30T04:24:38;8.23;;;7.30;;
9124;SDS011;4597;48.730;9.114;2023-01-30T04:27:04;12.83;;;8.67;;
9124;SDS011;4597;48.730;9.114;2023-01-30T04:29:29;9.63;;;7.90;;
9124;SDS011;4597;48.730;9.114;2023-01-30T04:31:55;11.03;;;8.70;;
9124;SDS011;4597;48.730;9.114;2023-01-30T04:34:20;8.93;;;7.73;;
9124;SDS011;4597;48.730;9.114;2023-01-30T04:36:46;10.93;;;8.20;;
9124;SDS011;4597;48.730;9.114;2023-01-30T04:39:11;10.00;;;7.83;;
9124;SDS011;4597;48.730;9.114;2023-01-30T04:41:37;10.73;;;7.87;;
9124;SDS011;4597;48.730;9.114;2023-01-30T04:44:02;12.03;;;7.67;;
9124;SDS011;4597;48.730;9.114;2023-01-30T04:46:29;11.17;;;8.80;;
9124;SDS011;4597;48.730;9.114;2023-01-30T04:48:54;11.27;;;7.27;;
9124;SDS011;4597;48.730;9.114;2023-01-30T04:51:20;10.37;;;7.37;;
9124;SDS011;4597;48.730;9.114;2023-01-30T04:53:45;8.37;;;7.23;;
9124;SDS011;4597;48.730;9.114;2023-01-30T04:56:11;10.60;;;8.13;;
9124;SDS011;4597;48.730;9.114;2023-01-30T04:58:36;8.17;;;7.37;;
9124;SDS011;4597;48.730;9.114;2023-01-30T05:01:11;8.97;;;7.13;;
9124;SDS011;4597;48.730;9.114;2023-01-30T05:03:44;8.27;;;7.10;;
9124;SDS011;4597;48.730;9.114;2023-01-30T05:06:16;8.80;;;6.63;;
9124;SDS011;4597;48.730;9.114;2023-01-30T05:08:42;9.10;;;7.73;;
9124;SDS011;4597;48.730;9.114;2023-01-30T05:11:08;8.97;;;7.43;;
9124;SDS011;4597;48.730;9.114;2023-01-30T05:13:33;9.13;;;7.43;;
9124;SDS011;4597;48.730;9.114;2023-01-30T05:15:59;9.90;;;7.73;;
9124;SDS011;4597;48.730;9.114;2023-01-30T05:18:24;9.23;;;7.27;;
9124;SDS011;4597;48.730;9.114;2023-01-30T05:20:50;10.00;;;8.20;;
9124;SDS011;4597;48.730;9.114;2023-01-30T05:23:15;9.27;;;7.60;;
9124;SDS011;4597;48.730;9.114;2023-01-30T05:25:41;10.30;;;7.37;;
9124;SDS011;4597;48.730;9.114;2023-01-30T05:28:06;8.33;;;7.53;;
9124;SDS011;4597;48.730;9.114;2023-01-30T05:30:32;9.43;;;7.20;;
9124;SDS011;4597;48.730;9.114;2023-01-30T05:32:57;8.20;;;7.30;;
9124;SDS011;4597;48.730;9.114;2023-01-30T05:35:23;7.97;;;7.17;;
9124;SDS011;4597;48.730;9.114;2023-01-30T05:37:49;9.30;;;7.17;;
9124;SDS011;4597;48.730;9.114;2023-01-30T05:40:15;9.10;;;7.37;;
9124;SDS011;4597;48.730;9.114;2023-01-30T05:42:41;8.03;;;6.93;;
9124;SDS011;4597;48.730;9.114;2023-01-30T05:45:06;7.43;;;6.50;;
9124;SDS011;4597;48.730;9.114;2023-01-30T05:47:32;8.07;;;7.27;;
9124;SDS011;4597;48.730;9.114;2023-01-30T05:49:58;9.10;;;7.60;;
9124;SDS011;4597;48.730;9.114;2023-01-30T05:52:24;10.13;;;8.47;;
9124;SDS011;4597;48.730;9.114;2023-01-30T05:54:49;8.43;;;7.33;;
9124;SDS011;4597;48.730;9.114;2023-01-30T05:57:15;9.07;;;7.40;;
9124;SDS011;4597;48.730;9.114;2023-01-30T05:59:40;9.10;;;7.73;;
9124;SDS011;4597;48.730;9.114;2023-01-30T06:02:06;8.07;;;6.93;;
9124;SDS011;4597;48.730;9.114;2023-01-30T06:04:31;7.70;;;6.67;;
9124;SDS011;4597;48.730;9.114;2023-01-30T06:06:57;7.57;;;6.17;;
9124;SDS011;4597;48.730;9.114;2023-01-30T06:09:22;8.07;;;6.53;;
9124;SDS011;4597;48.730;9.114;2023-01-30T06:11:48;9.50;;;7.17;;
9124;SDS011;4597;48.730;9.114;2023-01-30T06:14:16;10.93;;;7.70;;
9124;SDS011;4597;48.730;9.114;2023-01-30T06:16:41;10.77;;;7.93;;
9124;SDS011;4597;48.730;9.114;2023-01-30T06:19:07;14.87;;;10.60;;
9124;SDS011;4597;48.730;9.114;2023-01-30T06:21:32;8.23;;;7.33;;
9124;SDS011;4597;48.730;9.114;2023-01-30T06:23:58;6.83;;;6.00;;
9124;SDS011;4597;48.730;9.114;2023-01-30T06:26:24;7.63;;;6.43;;
9124;SDS011;4597;48.730;9.114;2023-01-30T06:28:49;7.90;;;6.37;;
9124;SDS011;4597;48.730;9.114;2023-01-30T06:31:15;8.00;;;7.20;;
9124;SDS011;4597;48.730;9.114;2023-01-30T06:33:42;6.60;;;5.90;;
9124;SDS011;4597;48.730;9.114;2023-01-30T06:36:08;6.67;;;5.97;;
9124;SDS011;4597;48.730;9.114;2023-01-30T06:38:33;6.77;;;6.00;;
9124;SDS011;4597;48.730;9.114;2023-01-30T06:40:59;7.53;;;6.20;;
9124;SDS011;4597;48.730;9.114;2023-01-30T06:43:25;8.17;;;6.03;;
9124;SDS011;4597;48.730;9.114;2023-01-30T06:45:50;6.50;;;5.73;;
9124;SDS011;4597;48.730;9.114;2023-01-30T06:48:16;9.70;;;7.90;;
9124;SDS011;4597;48.730;9.114;2023-01-30T06:50:41;7.87;;;6.63;;
9124;SDS011;4597;48.730;9.114;2023-01-30T06:53:07;7.60;;;6.43;;
9124;SDS011;4597;48.730;9.114;2023-01-30T06:55:33;9.00;;;6.37;;
9124;SDS011;4597;48.730;9.114;2023-01-30T06:58:09;8.30;;;6.57;;
9124;SDS011;4597;48.730;9.114;2023-01-30T07:00:36;7.27;;;5.83;;
9124;SDS011;4597;48.730;9.114;2023-01-30T07:03:13;10.47;;;8.87;;
9124;SDS011;4597;48.730;9.114;2023-01-30T07:05:40;8.40;;;7.50;;
9124;SDS011;4597;48.730;9.114;2023-01-30T07:08:07;7.97;;;6.47;;
9124;SDS011;4597;48.730;9.114;2023-01-30T07:10:33;7.27;;;6.10;;
9124;SDS011;4597;48.730;9.114;2023-01-30T07:12:59;7.97;;;6.40;;
9124;SDS011;4597;48.730;9.114;2023-01-30T07:15:26;7.80;;;6.40;;
9124;SDS011;4597;48.730;9.114;2023-01-30T07:17:52;7.10;;;6.20;;
9124;SDS011;4597;48.730;9.114;2023-01-30T07:20:17;6.90;;;6.20;;
9124;SDS011;4597;48.730;9.114;2023-01-30T07:22:47;7.07;;;6.30;;
9124;SDS011;4597;48.730;9.114;2023-01-30T07:25:14;7.80;;;6.43;;
9124;SDS011;4597;48.730;9.114;2023-01-30T07:27:40;7.07;;;6.10;;
9124;SDS011;4597;48.730;9.114;2023-01-30T07:30:06;9.33;;;6.50;;
9124;SDS011;4597;48.730;9.114;2023-01-30T07:32:32;9.77;;;6.37;;
9124;SDS011;4597;48.730;9.114;2023-01-30T07:34:57;9.87;;;7.00;;
9124;SDS011;4597;48.730;9.114;2023-01-30T07:37:23;6.57;;;5.80;;
9124;SDS011;4597;48.730;9.114;2023-01-30T07:39:48;7.27;;;6.33;;
9124;SDS011;4597;48.730;9.114;2023-01-30T07:42:14;12.90;;;6.47;;
9124;SDS011;4597;48.730;9.114;2023-01-30T07:44:39;7.17;;;6.33;;
9124;SDS011;4597;48.730;9.114;2023-01-30T07:47:05;7.47;;;6.03;;
9124;SDS011;4597;48.730;9.114;2023-01-30T07:49:30;8.83;;;6.83;;
9124;SDS011;4597;48.730;9.114;2023-01-30T07:51:56;8.77;;;6.40;;
9124;SDS011;4597;48.730;9.114;2023-01-30T07:54:22;7.03;;;6.30;;
9124;SDS011;4597;48.730;9.114;2023-01-30T07:56:47;8.17;;;5.77;;
9124;SDS011;4597;48.730;9.114;2023-01-30T07:59:13;8.07;;;6.33;;
9124;SDS011;4597;48.730;9.114;2023-01-30T08:01:38;12.23;;;8.70;;
9124;SDS011;4597;48.730;9.114;2023-01-30T08:04:04;12.70;;;8.90;;
9124;SDS011;4597;48.730;9.114;2023-01-30T08:06:29;19.17;;;13.90;;
9124;SDS011;4597;48.730;9.114;2023-01-30T08:08:55;10.33;;;8.23;;
9124;SDS011;4597;48.730;9.114;2023-01-30T08:11:20;15.57;;;10.90;;
9124;SDS011;4597;48.730;9.114;2023-01-30T08:13:46;19.80;;;11.43;;
9124;SDS011;4597;48.730;9.114;2023-01-30T08:16:11;9.90;;;6.47;;
9124;SDS011;4597;48.730;9.114;2023-01-30T08:18:37;9.07;;;6.30;;
9124;SDS011;4597;48.730;9.114;2023-01-30T08:21:03;12.00;;;7.73;;
9124;SDS011;4597;48.730;9.114;2023-01-30T08:23:31;15.33;;;8.63;;
9124;SDS011;4597;48.730;9.114;2023-01-30T08:25:57;9.53;;;6.30;;
9124;SDS011;4597;48.730;9.114;2023-01-30T08:28:24;5.37;;;4.87;;
9124;SDS011;4597;48.730;9.114;2023-01-30T08:30:50;9.20;;;6.60;;
9124;SDS011;4597;48.730;9.114;2023-01-30T08:33:17;5.63;;;5.13;;
9124;SDS011;4597;48.730;9.114;2023-01-30T08:35:43;4.10;;;3.20;;
9124;SDS011;4597;48.730;9.114;2023-01-30T08:38:09;4.10;;;2.70;;
9124;SDS011;4597;48.730;9.114;2023-01-30T08:40:35;3.20;;;2.90;;
9124;SDS011;4597;48.730;9.114;2023-01-30T08:43:01;3.23;;;2.93;;
9124;SDS011;4597;48.730;9.114;2023-01-30T08:45:27;4.07;;;3.67;;
9124;SDS011;4597;48.730;9.114;2023-01-30T08:47:53;2.97;;;2.67;;
9124;SDS011;4597;48.730;9.114;2023-01-30T08:50:22;3.13;;;2.83;;
9124;SDS011;4597;48.730;9.114;2023-01-30T08:52:48;2.90;;;2.20;;
9124;SDS011;4597;48.730;9.114;2023-01-30T08:55:13;2.27;;;2.10;;
9124;SDS011;4597;48.730;9.114;2023-01-30T08:57:39;2.10;;;1.90;;
9124;SDS011;4597;48.730;9.114;2023-01-30T09:00:05;2.03;;;1.93;;
9124;SDS011;4597;48.730;9.114;2023-01-30T09:02:31;1.90;;;1.80;;
9124;SDS011;4597;48.730;9.114;2023-01-30T09:04:56;1.77;;;1.67;;
9124;SDS011;4597;48.730;9.114;2023-01-30T09:07:22;1.73;;;1.63;;
9124;SDS011;4597;48.730;9.114;2023-01-30T09:09:47;1.60;;;1.50;;
9124;SDS011;4597;48.730;9.114;2023-01-30T09:12:13;1.80;;;1.70;;
9124;SDS011;4597;48.730;9.114;2023-01-30T09:14:39;3.63;;;2.93;;
9124;SDS011;4597;48.730;9.114;2023-01-30T09:17:04;1.70;;;1.40;;
9124;SDS011;4597;48.730;9.114;2023-01-30T09:19:30;1.40;;;1.30;;
9124;SDS011;4597;48.730;9.114;2023-01-30T09:21:55;2.73;;;2.50;;
9124;SDS011;4597;48.730;9.114;2023-01-30T09:24:21;1.47;;;1.37;;
9124;SDS011;4597;48.730;9.114;2023-01-30T09:26:51;1.70;;;1.60;;
9124;SDS011;4597;48.730;9.114;2023-01-30T09:29:24;2.20;;;2.10;;
9124;SDS011;4597;48.730;9.114;2023-01-30T09:31:50;1.80;;;1.67;;
9124;SDS011;4597;48.730;9.114;2023-01-30T09:34:16;1.70;;;1.60;;
9124;SDS011;4597;48.730;9.114;2023-01-30T09:36:42;2.50;;;2.30;;
9124;SDS011;4597;48.730;9.114;2023-01-30T09:39:07;1.30;;;1.30;;
9124;SDS011;4597;48.730;9.114;2023-01-30T09:52:23;1.23;;;1.23;;
9124;SDS011;4597;48.730;9.114;2023-01-30T09:54:59;1.30;;;1.30;;
9124;SDS011;4597;48.730;9.114;2023-01-30T09:57:43;2.23;;;1.80;;
9124;SDS011;4597;48.730;9.114;2023-01-30T10:00:12;1.37;;;1.27;;
9124;SDS011;4597;48.730;9.114;2023-01-30T10:02:51;1.50;;;1.50;;
9124;SDS011;4597;48.730;9.114;2023-01-30T10:05:32;2.20;;;1.50;;
9124;SDS011;4597;48.730;9.114;2023-01-30T10:11:14;1.80;;;1.30;;
9124;SDS011;4597;48.730;9.114;2023-01-30T10:22:44;1.43;;;1.33;;
9124;SDS011;4597;48.730;9.114;2023-01-30T10:25:41;1.33;;;1.23;;
9124;SDS011;4597;48.730;9.114;2023-01-30T10:28:12;1.73;;;1.40;;
9124;SDS011;4597;48.730;9.114;2023-01-30T10:30:44;1.77;;;1.30;;
9124;SDS011;4597;48.730;9.114;2023-01-30T10:33:47;1.63;;;1.53;;
9124;SDS011;4597;48.730;9.114;2023-01-30T10:36:45;1.30;;;1.20;;
9124;SDS011;4597;48.730;9.114;2023-01-30T10:39:20;1.60;;;1.50;;
9124;SDS011;4597;48.730;9.114;2023-01-30T10:42:10;1.50;;;1.40;;
9124;SDS011;4597;48.730;9.114;2023-01-30T10:44:40;1.20;;;1.20;;
9124;SDS011;4597;48.730;9.114;2023-01-30T10:49:55;1.50;;;1.23;;
9124;SDS011;4597;48.730;9.114;2023-01-30T10:55:34;1.70;;;1.40;;
9124;SDS011;4597;48.730;9.114;2023-01-30T11:00:37;1.60;;;1.37;;
9124;SDS011;4597;48.730;9.114;2023-01-30T11:03:14;1.83;;;1.33;;
9124;SDS011;4597;48.730;9.114;2023-01-30T11:06:02;1.67;;;1.57;;
9124;SDS011;4597;48.730;9.114;2023-01-30T11:08:40;2.40;;;1.70;;
9124;SDS011;4597;48.730;9.114;2023-01-30T11:14:05;2.27;;;2.00;;
9124;SDS011;4597;48.730;9.114;2023-01-30T11:16:54;1.50;;;1.40;;
9124;SDS011;4597;48.730;9.114;2023-01-30T11:19:23;1.97;;;1.23;;
9124;SDS011;4597;48.730;9.114;2023-01-30T11:21:55;1.60;;;1.50;;
9124;SDS011;4597;48.730;9.114;2023-01-30T11:24:37;1.40;;;1.30;;
9124;SDS011;4597;48.730;9.114;2023-01-30T11:27:26;1.27;;;1.20;;
9124;SDS011;4597;48.730;9.114;2023-01-30T11:29:54;1.50;;;1.40;;
9124;SDS011;4597;48.730;9.114;2023-01-30T11:32:29;1.40;;;1.33;;
9124;SDS011;4597;48.730;9.114;2023-01-30T11:35:02;1.13;;;1.13;;
9124;SDS011;4597;48.730;9.114;2023-01-30T11:37:49;1.43;;;1.33;;
9124;SDS011;4597;48.730;9.114;2023-01-30T11:42:43;2.30;;;1.77;;
9124;SDS011;4597;48.730;9.114;2023-01-30T11:45:34;1.97;;;1.80;;
9124;SDS011;4597;48.730;9.114;2023-01-30T11:48:03;2.03;;;1.40;;
9124;SDS011;4597;48.730;9.114;2023-01-30T11:50:40;1.77;;;1.67;;
9124;SDS011;4597;48.730;9.114;2023-01-30T11:53:13;1.53;;;1.43;;
9124;SDS011;4597;48.730;9.114;2023-01-30T11:55:57;1.73;;;1.63;;
9124;SDS011;4597;48.730;9.114;2023-01-30T11:58:28;1.83;;;1.73;;
9124;SDS011;4597;48.730;9.114;2023-01-30T12:00:58;1.70;;;1.60;;
9124;SDS011;4597;48.730;9.114;2023-01-30T12:03:24;3.87;;;1.80;;
9124;SDS011;4597;48.730;9.114;2023-01-30T12:05:53;1.57;;;1.40;;
9124;SDS011;4597;48.730;9.114;2023-01-30T12:08:22;1.70;;;1.60;;
9124;SDS011;4597;48.730;9.114;2023-01-30T12:10:57;1.93;;;1.70;;
9124;SDS011;4597;48.730;9.114;2023-01-30T12:13:38;4.17;;;1.70;;
9124;SDS011;4597;48.730;9.114;2023-01-30T12:16:20;1.80;;;1.70;;
9124;SDS011;4597;48.730;9.114;2023-01-30T12:19:04;1.70;;;1.60;;
9124;SDS011;4597;48.730;9.114;2023-01-30T12:24:35;2.30;;;1.80;;
9124;SDS011;4597;48.730;9.114;2023-01-30T12:27:08;1.80;;;1.60;;
9124;SDS011;4597;48.730;9.114;2023-01-30T12:32:42;1.70;;;1.60;;
9124;SDS011;4597;48.730;9.114;2023-01-30T12:35:17;1.50;;;1.40;;
9124;SDS011;4597;48.730;9.114;2023-01-30T12:37:56;2.40;;;1.80;;
9124;SDS011;4597;48.730;9.114;2023-01-30T12:40:46;1.80;;;1.70;;
9124;SDS011;4597;48.730;9.114;2023-01-30T12:43:28;1.50;;;1.40;;
9124;SDS011;4597;48.730;9.114;2023-01-30T12:46:23;1.80;;;1.70;;
9124;SDS011;4597;48.730;9.114;2023-01-30T12:54:36;1.60;;;1.50;;
9124;SDS011;4597;48.730;9.114;2023-01-30T12:59:59;1.83;;;1.63;;
9124;SDS011;4597;48.730;9.114;2023-01-30T13:02:35;2.20;;;1.57;;
9124;SDS011;4597;48.730;9.114;2023-01-30T13:08:12;3.47;;;1.90;;
9124;SDS011;4597;48.730;9.114;2023-01-30T13:10:50;1.90;;;1.70;;
9124;SDS011;4597;48.730;9.114;2023-01-30T13:13:47;1.77;;;1.67;;
9124;SDS011;4597;48.730;9.114;2023-01-30T13:16:26;1.93;;;1.70;;
9124;SDS011;4597;48.730;9.114;2023-01-30T13:19:34;3.07;;;1.80;;
9124;SDS011;4597;48.730;9.114;2023-01-30T13:22:15;2.00;;;1.90;;
9124;SDS011;4597;48.730;9.114;2023-01-30T13:25:13;2.30;;;1.80;;
9124;SDS011;4597;48.730;9.114;2023-01-30T13:27:45;1.87;;;1.77;;
9124;SDS011;4597;48.730;9.114;2023-01-30T13:30:17;2.43;;;1.80;;
9124;SDS011;4597;48.730;9.114;2023-01-30T13:32:44;4.07;;;2.40;;
9124;SDS011;4597;48.730;9.114;2023-01-30T13:35:18;2.87;;;2.50;;
9124;SDS011;4597;48.730;9.114;2023-01-30T13:37:47;2.13;;;2.03;;
9124;SDS011;4597;48.730;9.114;2023-01-30T13:40:18;3.63;;;2.60;;
9124;SDS011;4597;48.730;9.114;2023-01-30T13:42:58;3.10;;;2.80;;
9124;SDS011;4597;48.730;9.114;2023-01-30T13:45:29;4.70;;;3.00;;
9124;SDS011;4597;48.730;9.114;2023-01-30T13:48:22;3.93;;;3.10;;
9124;SDS011;4597;48.730;9.114;2023-01-30T13:56:52;4.07;;;3.07;;
9124;SDS011;4597;48.730;9.114;2023-01-30T14:02:29;3.80;;;3.33;;
9124;SDS011;4597;48.730;9.114;2023-01-30T14:04:55;7.13;;;3.63;;
9124;SDS011;4597;48.730;9.114;2023-01-30T14:07:27;4.30;;;3.37;;
9124;SDS011;4597;48.730;9.114;2023-01-30T14:10:03;4.20;;;3.40;;
9124;SDS011;4597;48.730;9.114;2023-01-30T14:12:39;3.77;;;3.07;;
9124;SDS011;4597;48.730;9.114;2023-01-30T14:17:55;3.70;;;3.40;;
9124;SDS011;4597;48.730;9.114;2023-01-30T14:20:28;3.90;;;3.57;;
9124;SDS011;4597;48.730;9.114;2023-01-30T14:22:56;3.70;;;3.40;;
9124;SDS011;4597;48.730;9.114;2023-01-30T14:30:34;3.53;;;3.20;;
9124;SDS011;4597;48.730;9.114;2023-01-30T14:38:17;3.53;;;3.20;;
9124;SDS011;4597;48.730;9.114;2023-01-30T14:40:47;3.63;;;3.27;;
9124;SDS011;4597;48.730;9.114;2023-01-30T14:43:34;4.43;;;3.60;;
9124;SDS011;4597;48.730;9.114;2023-01-30T14:59:49;4.33;;;3.33;;
9124;SDS011;4597;48.730;9.114;2023-01-30T15:04:52;4.20;;;3.77;;
9124;SDS011;4597;48.730;9.114;2023-01-30T15:15:50;5.77;;;4.80;;
9124;SDS011;4597;48.730;9.114;2023-01-30T15:21:26;5.50;;;4.23;;
9124;SDS011;4597;48.730;9.114;2023-01-30T15:24:17;5.23;;;4.47;;
9124;SDS011;4597;48.730;9.114;2023-01-30T15:26:55;5.00;;;4.33;;
9124;SDS011;4597;48.730;9.114;2023-01-30T15:32:33;5.37;;;4.10;;
9124;SDS011;4597;48.730;9.114;2023-01-30T15:35:00;4.97;;;4.20;;
9124;SDS011;4597;48.730;9.114;2023-01-30T15:42:49;6.77;;;4.70;;
9124;SDS011;4597;48.730;9.114;2023-01-30T15:51:12;5.23;;;4.23;;
9124;SDS011;4597;48.730;9.114;2023-01-30T15:53:43;4.57;;;4.00;;
9124;SDS011;4597;48.730;9.114;2023-01-30T15:56:15;6.07;;;5.07;;
9124;SDS011;4597;48.730;9.114;2023-01-30T15:58:44;6.10;;;4.53;;
9124;SDS011;4597;48.730;9.114;2023-01-30T16:01:11;5.90;;;4.50;;
9124;SDS011;4597;48.730;9.114;2023-01-30T16:03:41;5.30;;;4.73;;
9124;SDS011;4597;48.730;9.114;2023-01-30T16:06:19;7.37;;;6.30;;
9124;SDS011;4597;48.730;9.114;2023-01-30T16:08:59;4.50;;;4.10;;
9124;SDS011;4597;48.730;9.114;2023-01-30T16:11:31;6.70;;;4.13;;
9124;SDS011;4597;48.730;9.114;2023-01-30T16:14:16;4.30;;;3.83;;
9124;SDS011;4597;48.730;9.114;2023-01-30T16:16:48;4.67;;;4.27;;
9124;SDS011;4597;48.730;9.114;2023-01-30T16:19:29;4.23;;;3.83;;
9124;SDS011;4597;48.730;9.114;2023-01-30T16:21:57;7.00;;;6.40;;
9124;SDS011;4597;48.730;9.114;2023-01-30T16:24:26;4.50;;;4.10;;
9124;SDS011;4597;48.730;9.114;2023-01-30T16:26:54;4.73;;;4.33;;
9124;SDS011;4597;48.730;9.114;2023-01-30T16:29:27;4.13;;;3.77;;
9124;SDS011;4597;48.730;9.114;2023-01-30T16:31:55;5.13;;;4.63;;
9124;SDS011;4597;48.730;9.114;2023-01-30T16:36:49;5.70;;;4.27;;
9124;SDS011;4597;48.730;9.114;2023-01-30T16:39:23;4.83;;;4.43;;
9124;SDS011;4597;48.730;9.114;2023-01-30T16:41:56;4.80;;;4.27;;
9124;SDS011;4597;48.730;9.114;2023-01-30T16:44:24;6.10;;;4.93;;
9124;SDS011;4597;48.730;9.114;2023-01-30T16:49:55;5.10;;;4.07;;
9124;SDS011;4597;48.730;9.114;2023-01-30T16:52:30;5.73;;;3.53;;
9124;SDS011;4597;48.730;9.114;2023-01-30T16:55:02;6.50;;;5.50;;
9124;SDS011;4597;48.730;9.114;2023-01-30T16:57:34;4.97;;;4.40;;
9124;SDS011;4597;48.730;9.114;2023-01-30T17:00:20;4.53;;;4.10;;
9124;SDS011;4597;48.730;9.114;2023-01-30T17:02:49;4.77;;;4.30;;
9124;SDS011;4597;48.730;9.114;2023-01-30T17:05:20;4.83;;;4.10;;
9124;SDS011;4597;48.730;9.114;2023-01-30T17:07:54;5.40;;;4.83;;
9124;SDS011;4597;48.730;9.114;2023-01-30T17:12:53;4.63;;;4.23;;
9124;SDS011;4597;48.730;9.114;2023-01-30T17:17:45;7.27;;;5.50;;
9124;SDS011;4597;48.730;9.114;2023-01-30T17:20:12;7.93;;;4.67;;
9124;SDS011;4597;48.730;9.114;2023-01-30T17:22:42;6.63;;;4.60;;
9124;SDS011;4597;48.730;9.114;2023-01-30T17:25:15;8.27;;;5.20;;
9124;SDS011;4597;48.730;9.114;2023-01-30T17:27:45;4.83;;;4.10;;
9124;SDS011;4597;48.730;9.114;2023-01-30T17:30:12;5.13;;;4.00;;
9124;SDS011;4597;48.730;9.114;2023-01-30T17:32:39;4.57;;;4.03;;
9124;SDS011;4597;48.730;9.114;2023-01-30T17:35:05;5.97;;;4.13;;
9124;SDS011;4597;48.730;9.114;2023-01-30T17:37:30;6.70;;;5.50;;
9124;SDS011;4597;48.730;9.114;2023-01-30T17:39:56;5.53;;;4.73;;
9124;SDS011;4597;48.730;9.114;2023-01-30T17:42:21;4.77;;;4.37;;
9124;SDS011;4597;48.730;9.114;2023-01-30T17:44:47;8.87;;;5.50;;
9124;SDS011;4597;48.730;9.114;2023-01-30T17:47:13;5.33;;;4.37;;
9124;SDS011;4597;48.730;9.114;2023-01-30T17:49:38;5.03;;;4.23;;
9124;SDS011;4597;48.730;9.114;2023-01-30T17:52:04;7.13;;;5.27;;
9124;SDS011;4597;48.730;9.114;2023-01-30T17:54:30;5.57;;;4.77;;
9124;SDS011;4597;48.730;9.114;2023-01-30T17:56:58;5.00;;;4.50;;
9124;SDS011;4597;48.730;9.114;2023-01-30T17:59:28;5.57;;;4.90;;
9124;SDS011;4597;48.730;9.114;2023-01-30T18:01:53;7.43;;;5.00;;